Time;durP1;ratioP1;P1;durP2;ratioP2;P2;SDS_P1;SDS_P2;PMS_P1;PMS_P2;Temp;Humidity;BMP_temperature;BMP_pressure;BME280_temperature;BME280_humidity;BME280_pressure;Samples;Min_cycle;Max_cycle;Signal;HPM_P1;HPM_P2
2022/07/17 00:01:46;;;;;;;5.05;1.30;;;;;;;13.11;68.49;99593.45;1748120;81;21482;-43
2022/07/17 00:04:12;;;;;;;4.03;1.15;;;;;;;13.12;68.51;99595.17;1748104;81;20992;-43
2022/07/17 00:06:38;;;;;;;4.03;0.90;;;;;;;13.15;68.21;99595.44;1748168;81;21024;-44
2022/07/17 00:09:04;;;;;;;2.75;1.42;;;;;;;13.18;68.12;99594.78;1748106;81;20976;-43
2022/07/17 00:11:30;;;;;;;2.85;1.10;;;;;;;13.14;68.46;99593.76;1748086;81;21469;-45
2022/07/17 00:13:56;;;;;;;2.40;1.20;;;;;;;13.15;68.36;99600.72;1748203;82;20988;-41
2022/07/17 02:43:27;;;;;;;4.30;1.40;;;;;;;12.66;73.22;99675.30;1819001;79;22413;-40
2022/07/17 02:45:52;;;;;;;4.95;1.20;;;;;;;12.59;73.84;99672.63;1792955;80;21090;-43
2022/07/17 02:48:18;;;;;;;5.90;1.40;;;;;;;12.55;74.67;99670.24;1792998;80;21003;-43
2022/07/17 02:50:44;;;;;;;7.97;1.40;;;;;;;12.53;73.76;99671.64;1793001;80;20986;-41
2022/07/17 02:53:10;;;;;;;3.75;1.20;;;;;;;12.50;74.13;99674.48;1793018;80;20955;-43
2022/07/17 02:55:35;;;;;;;4.25;1.22;;;;;;;12.45;74.22;99676.52;1793032;80;20959;-43
2022/07/17 02:58:04;;;;;;;3.58;1.10;;;;;;;12.44;73.68;99677.00;1793045;80;21069;-39
2022/07/17 03:00:30;;;;;;;6.15;1.20;;;;;;;12.44;74.05;99682.28;1792989;80;20948;-40
2022/07/17 03:02:56;;;;;;;5.30;1.22;;;;;;;12.42;74.51;99673.57;1793028;80;21526;-42
2022/07/17 03:05:22;;;;;;;6.10;1.37;;;;;;;12.41;74.37;99680.28;1793093;80;21519;-44
2022/07/17 03:07:49;;;;;;;4.72;1.60;;;;;;;12.40;74.69;99682.05;1793008;80;20979;-42
2022/07/17 03:10:15;;;;;;;2.33;1.35;;;;;;;12.39;74.90;99680.84;1793136;80;20995;-42
2022/07/17 03:12:42;;;;;;;3.75;1.35;;;;;;;12.40;74.58;99685.16;1793104;80;21502;-41
2022/07/17 03:15:09;;;;;;;4.47;1.50;;;;;;;12.40;74.30;99677.25;1793328;80;21495;-40
2022/07/17 03:17:35;;;;;;;5.12;1.25;;;;;;;12.43;74.52;99683.68;1793109;80;21484;-40
2022/07/17 03:20:01;;;;;;;5.28;1.47;;;;;;;12.42;74.64;99688.56;1792978;80;20994;-42
2022/07/17 03:22:27;;;;;;;6.47;2.02;;;;;;;12.43;75.09;99681.04;1793060;80;21188;-48
2022/07/17 03:24:53;;;;;;;3.40;1.50;;;;;;;12.43;75.93;99685.00;1793072;80;21460;-46
2022/07/17 03:27:18;;;;;;;4.03;1.50;;;;;;;12.49;75.11;99685.95;1792984;80;20990;-42
2022/07/17 03:29:45;;;;;;;3.50;1.40;;;;;;;12.49;75.36;99688.59;1792966;80;20959;-40
2022/07/17 03:32:11;;;;;;;2.95;1.30;;;;;;;12.48;75.67;99685.59;1793247;80;20994;-42
2022/07/17 03:34:38;;;;;;;4.90;1.62;;;;;;;12.49;75.29;99692.55;1792974;80;20994;-41
2022/07/17 03:37:05;;;;;;;2.70;1.45;;;;;;;12.50;75.53;99691.62;1793096;80;21147;-44
2022/07/17 03:39:31;;;;;;;5.67;1.57;;;;;;;12.52;74.93;99693.70;1793194;80;21491;-38
2022/07/17 03:41:57;;;;;;;4.35;1.67;;;;;;;12.53;75.56;99704.62;1788981;80;21003;-44
2022/07/17 03:44:23;;;;;;;6.37;1.57;;;;;;;12.56;75.27;99712.84;1779432;81;20987;-42
2022/07/17 03:46:49;;;;;;;4.22;1.40;;;;;;;12.54;75.02;99718.20;1779406;81;20975;-39
2022/07/17 03:49:17;;;;;;;9.05;1.50;;;;;;;12.52;75.17;99721.41;1779430;81;21018;-42
2022/07/17 03:51:43;;;;;;;3.67;1.57;;;;;;;12.54;75.21;99724.80;1779326;81;21421;-42
2022/07/17 03:54:09;;;;;;;4.70;1.40;;;;;;;12.51;75.95;99727.60;1778981;81;21022;-41
2022/07/17 03:56:35;;;;;;;2.10;1.30;;;;;;;12.51;75.37;99732.88;1778846;80;20964;-44
2022/07/17 03:59:00;;;;;;;1.75;1.15;;;;;;;12.45;76.39;99731.92;1778847;80;21027;-40
2022/07/17 04:01:26;;;;;;;3.50;1.27;;;;;;;12.43;76.08;99737.75;1778797;81;21038;-42
2022/07/17 04:03:52;;;;;;;6.87;1.60;;;;;;;12.39;76.66;99737.07;1778840;80;21112;-42
2022/07/17 04:06:18;;;;;;;5.20;1.67;;;;;;;12.39;76.16;99736.23;1778852;81;20995;-39
2022/07/17 04:08:44;;;;;;;2.40;1.00;;;;;;;12.28;77.05;99742.94;1778830;80;20995;-39
2022/07/17 04:11:10;;;;;;;6.05;1.50;;;;;;;12.28;77.02;99749.53;1778898;81;20990;-40
2022/07/17 04:13:36;;;;;;;4.47;1.50;;;;;;;12.32;76.74;99749.37;1778824;81;20979;-40
2022/07/17 04:16:02;;;;;;;4.15;1.40;;;;;;;12.29;76.79;99740.66;1778916;80;20959;-40
2022/07/17 04:18:34;;;;;;;5.80;1.40;;;;;;;12.32;76.34;99744.09;1778844;80;21444;-43
2022/07/17 04:21:07;;;;;;;6.90;1.40;;;;;;;12.32;77.23;99742.78;1778828;81;21461;-37
2022/07/17 04:23:34;;;;;;;3.55;1.20;;;;;;;12.36;76.25;99743.82;1778656;80;21019;-44
2022/07/17 04:25:59;;;;;;;7.30;1.40;;;;;;;12.33;77.54;99757.17;1778954;81;21480;-39
2022/07/17 04:28:25;;;;;;;7.28;1.55;;;;;;;12.31;77.62;99748.50;1778863;81;21022;-42
2022/07/17 04:30:51;;;;;;;5.40;1.32;;;;;;;12.31;78.00;99756.88;1778895;81;21026;-37
2022/07/17 04:33:17;;;;;;;7.85;1.42;;;;;;;12.31;78.16;99755.56;1778814;81;21112;-39
2022/07/17 04:35:44;;;;;;;3.35;1.45;;;;;;;12.36;77.81;99751.73;1778836;81;21018;-42
2022/07/17 04:38:10;;;;;;;5.47;1.87;;;;;;;12.37;78.10;99757.41;1778819;80;20998;-38
2022/07/17 04:40:38;;;;;;;5.58;1.85;;;;;;;12.41;77.38;99762.89;1778885;80;20987;-40
2022/07/17 04:43:05;;;;;;;4.22;1.20;;;;;;;12.44;77.90;99767.13;1783921;80;21452;-40
2022/07/17 04:45:31;;;;;;;10.00;1.50;;;;;;;12.45;77.98;99770.16;1787285;80;20995;-40
2022/07/17 04:47:57;;;;;;;3.87;1.50;;;;;;;12.44;78.83;99773.72;1787085;80;21038;-40
2022/07/17 04:50:23;;;;;;;3.70;1.75;;;;;;;12.53;77.71;99774.53;1787098;80;21021;-40
2022/07/17 04:52:49;;;;;;;4.10;1.60;;;;;;;12.57;77.95;99776.08;1787053;80;20991;-44
2022/07/17 04:55:15;;;;;;;4.90;1.30;;;;;;;12.65;77.42;99782.24;1787090;80;21147;-40
2022/07/17 04:57:41;;;;;;;6.03;1.70;;;;;;;12.70;77.91;99781.52;1787138;80;20994;-41
2022/07/17 05:00:10;;;;;;;6.95;1.40;;;;;;;12.73;77.83;99785.28;1787198;80;20995;-43
2022/07/17 05:02:36;;;;;;;8.70;1.47;;;;;;;12.76;78.60;99782.48;1787070;80;21468;-45
2022/07/17 05:05:03;;;;;;;6.45;1.35;;;;;;;12.81;77.60;99779.59;1787081;80;20998;-39
2022/07/17 05:07:28;;;;;;;6.17;1.40;;;;;;;12.81;78.09;99787.03;1787153;80;21392;-43
2022/07/17 05:09:54;;;;;;;11.70;1.62;;;;;;;12.85;77.94;99793.00;1787078;80;21353;-46
2022/07/17 05:12:20;;;;;;;6.62;1.37;;;;;;;12.84;78.82;99794.80;1787071;80;20982;-42
2022/07/17 05:14:46;;;;;;;4.30;1.60;;;;;;;12.86;79.05;99796.88;1787096;80;21023;-42
2022/07/17 05:17:12;;;;;;;11.83;1.65;;;;;;;12.94;78.47;99800.86;1787057;80;21046;-46
2022/07/17 05:19:38;;;;;;;5.33;1.17;;;;;;;13.01;78.04;99799.10;1787085;80;20990;-43
2022/07/17 05:22:04;;;;;;;5.37;1.80;;;;;;;13.05;78.69;99802.42;1787009;80;21026;-41
2022/07/17 05:24:30;;;;;;;7.62;1.57;;;;;;;13.14;77.84;99803.20;1787176;80;20991;-41
2022/07/17 05:26:56;;;;;;;3.92;1.37;;;;;;;13.22;78.03;99806.27;1787292;80;21468;-44
2022/07/17 05:29:22;;;;;;;7.80;1.80;;;;;;;13.32;77.43;99812.37;1787043;80;21528;-43
2022/07/17 05:31:49;;;;;;;9.20;1.62;;;;;;;13.36;78.31;99811.23;1787059;80;21010;-44
2022/07/17 05:34:14;;;;;;;5.78;1.65;;;;;;;13.40;77.79;99809.63;1787077;80;21010;-46
2022/07/17 05:36:40;;;;;;;8.03;1.75;;;;;;;13.46;77.84;99812.86;1786994;80;20990;-42
2022/07/17 05:39:06;;;;;;;5.50;1.45;;;;;;;13.49;78.27;99806.92;1787030;80;20991;-43
2022/07/17 05:41:32;;;;;;;5.45;1.20;;;;;;;13.57;77.70;99807.78;1787125;80;21143;-42
2022/07/17 05:43:57;;;;;;;9.60;1.80;;;;;;;13.63;77.13;99806.95;1779633;80;21505;-39
2022/07/17 05:46:23;;;;;;;6.75;2.40;;;;;;;13.68;77.98;99808.02;1778937;81;21571;-41
2022/07/17 05:48:49;;;;;;;7.55;1.45;;;;;;;13.74;77.55;99804.16;1778838;80;21445;-40
2022/07/17 05:51:15;;;;;;;4.92;1.65;;;;;;;13.80;77.25;99810.37;1778717;80;20960;-44
2022/07/17 05:53:40;;;;;;;4.30;1.20;;;;;;;13.84;77.20;99813.20;1778779;80;21003;-44
2022/07/17 05:56:07;;;;;;;6.90;1.30;;;;;;;13.89;77.31;99812.47;1778855;80;20967;-44
2022/07/17 05:58:33;;;;;;;9.33;1.65;;;;;;;13.96;77.21;99820.88;1778766;80;20975;-41
2022/07/17 06:00:59;;;;;;;6.28;1.22;;;;;;;14.03;76.66;99818.25;1757037;81;21468;-38
2022/07/17 06:03:25;;;;;;;3.50;1.32;;;;;;;14.08;77.07;99818.81;1778778;80;20963;-43
2022/07/17 06:05:50;;;;;;;5.72;1.40;;;;;;;14.15;76.75;99825.44;1778722;80;20995;-40
2022/07/17 06:08:16;;;;;;;4.97;1.20;;;;;;;14.24;76.09;99818.70;1778742;80;20995;-39
2022/07/17 06:10:42;;;;;;;9.58;1.70;;;;;;;14.28;75.99;99818.91;1778775;81;20999;-38
2022/07/17 06:13:08;;;;;;;7.17;1.32;;;;;;;14.33;76.03;99817.28;1778806;80;21023;-40
2022/07/17 06:15:33;;;;;;;5.20;1.50;;;;;;;14.37;76.37;99822.30;1778757;81;21030;-43
2022/07/17 06:18:04;;;;;;;6.58;1.98;;;;;;;14.44;75.70;99817.45;1778760;81;20984;-42
2022/07/17 06:20:31;;;;;;;3.95;1.20;;;;;;;14.50;75.76;99818.89;1778711;80;20995;-42
2022/07/17 06:22:57;;;;;;;7.93;1.37;;;;;;;14.61;75.30;99825.70;1778996;80;21030;-40
2022/07/17 06:25:23;;;;;;;6.97;1.30;;;;;;;14.64;75.10;99822.00;1778772;80;20955;-44
2022/07/17 06:27:49;;;;;;;7.67;1.50;;;;;;;14.69;74.98;99825.20;1778765;80;21046;-45
2022/07/17 06:30:15;;;;;;;4.28;1.30;;;;;;;14.76;74.98;99825.19;1778804;80;20991;-43
2022/07/17 06:32:42;;;;;;;8.55;1.57;;;;;;;14.85;74.56;99831.22;1778823;81;21456;-39
2022/07/17 06:35:08;;;;;;;8.43;1.40;;;;;;;14.92;73.97;99839.14;1778992;81;21002;-46
2022/07/17 06:37:35;;;;;;;10.27;1.33;;;;;;;15.00;73.78;99841.77;1779045;81;20987;-41
2022/07/17 06:40:02;;;;;;;6.00;1.37;;;;;;;15.03;73.40;99845.07;1779075;81;21539;-39
2022/07/17 06:42:27;;;;;;;5.10;1.50;;;;;;;15.09;73.07;99843.81;1778888;80;21019;-46
2022/07/17 06:44:53;;;;;;;3.35;1.00;;;;;;;15.13;72.63;99845.31;1778752;81;20987;-41
2022/07/17 06:47:19;;;;;;;5.50;1.20;;;;;;;15.24;72.51;99853.39;1778876;80;21018;-43
2022/07/17 06:49:45;;;;;;;4.90;1.22;;;;;;;15.28;72.19;99854.91;1778727;80;20995;-46
2022/07/17 06:52:11;;;;;;;14.10;3.00;;;;;;;15.29;71.54;99849.13;1778765;81;20979;-41
2022/07/17 06:54:36;;;;;;;4.53;1.20;;;;;;;15.27;70.82;99852.36;1778833;81;21027;-42
2022/07/17 06:57:03;;;;;;;3.27;0.90;;;;;;;15.36;71.26;99846.45;1778743;80;20991;-47
2022/07/17 06:59:29;;;;;;;6.10;1.47;;;;;;;15.42;71.33;99857.12;1778740;80;21467;-41
2022/07/17 07:01:54;;;;;;;2.50;1.00;;;;;;;15.44;70.30;99845.45;1778706;81;20991;-43
2022/07/17 07:04:20;;;;;;;2.77;0.90;;;;;;;15.53;70.75;99851.95;1778685;81;20975;-44
2022/07/17 07:06:46;;;;;;;11.75;1.40;;;;;;;15.59;69.90;99851.55;1778806;81;21019;-41
2022/07/17 07:09:12;;;;;;;4.20;1.20;;;;;;;15.67;69.92;99853.68;1778750;80;21028;-44
2022/07/17 07:11:38;;;;;;;5.12;1.27;;;;;;;15.78;69.87;99863.59;1778786;81;21429;-43
2022/07/17 07:14:08;;;;;;;3.17;1.00;;;;;;;15.88;69.43;99863.32;1778776;80;21426;-44
2022/07/17 07:16:35;;;;;;;5.37;1.15;;;;;;;15.99;68.80;99862.14;1778692;81;20987;-40
2022/07/17 07:19:01;;;;;;;3.60;0.90;;;;;;;16.06;68.24;99867.84;1779016;80;21038;-41
2022/07/17 07:21:27;;;;;;;6.78;1.17;;;;;;;16.14;67.70;99864.69;1778764;81;21174;-45
2022/07/17 07:23:54;;;;;;;3.20;0.98;;;;;;;16.12;66.98;99876.73;1778775;80;20994;-44
2022/07/17 07:26:20;;;;;;;3.17;1.70;;;;;;;16.23;67.76;99864.89;1778851;80;21507;-45
2022/07/17 07:28:46;;;;;;;4.37;1.17;;;;;;;16.23;67.76;99864.89;1778831;81;21452;-43
2022/07/17 07:31:12;;;;;;;5.97;1.00;;;;;;;16.33;67.38;99865.08;1778874;80;21875;-44
2022/07/17 07:33:38;;;;;;;4.22;1.00;;;;;;;16.40;66.30;99869.00;1779005;80;21030;-44
2022/07/17 07:36:05;;;;;;;5.00;0.85;;;;;;;16.50;65.42;99875.86;1778945;81;20994;-44
2022/07/17 07:38:31;;;;;;;3.12;0.88;;;;;;;16.60;65.45;99872.06;1779160;80;20994;-42
2022/07/17 07:40:57;;;;;;;6.55;1.07;;;;;;;16.65;64.49;99866.79;1778880;81;21000;-43
2022/07/17 07:43:23;;;;;;;1.55;0.80;;;;;;;16.74;63.87;99881.22;1782273;80;21042;-40
2022/07/17 07:45:49;;;;;;;2.23;0.77;;;;;;;16.78;63.75;99874.73;1787310;80;21029;-42
2022/07/17 07:48:15;;;;;;;4.30;1.00;;;;;;;16.84;63.03;99873.47;1787244;80;20990;-40
2022/07/17 07:50:42;;;;;;;2.85;1.12;;;;;;;16.87;61.74;99875.42;1787272;80;20986;-40
2022/07/17 07:53:07;;;;;;;4.83;0.90;;;;;;;17.02;62.78;99872.61;1787193;80;20998;-45
2022/07/17 07:55:33;;;;;;;5.92;1.02;;;;;;;17.18;62.07;99865.70;1787171;80;21446;-39
2022/07/17 07:58:09;;;;;;;4.92;1.00;;;;;;;17.28;61.38;99872.02;1787228;80;21092;-43
2022/07/17 08:00:35;;;;;;;4.42;0.80;;;;;;;17.29;61.89;99877.72;1786395;80;20991;-41
2022/07/17 08:03:02;;;;;;;1.92;0.85;;;;;;;17.30;61.82;99883.88;1787082;80;20999;-41
2022/07/17 08:05:28;;;;;;;1.32;0.80;;;;;;;17.29;60.71;99887.51;1787402;80;20963;-42
2022/07/17 08:07:54;;;;;;;2.50;0.70;;;;;;;17.36;60.06;99898.06;1787153;80;21007;-43
2022/07/17 08:10:22;;;;;;;7.28;1.07;;;;;;;17.27;57.80;99888.45;1787143;80;21022;-38
2022/07/17 08:12:47;;;;;;;2.05;0.78;;;;;;;17.39;59.49;99880.53;1787079;80;20971;-47
2022/07/17 08:15:17;;;;;;;0.85;0.70;;;;;;;17.49;57.94;99882.88;1787092;80;20979;-43
2022/07/17 08:17:43;;;;;;;3.45;1.12;;;;;;;17.62;58.55;99886.30;1787185;80;20995;-44
2022/07/17 08:20:10;;;;;;;5.78;0.75;;;;;;;17.72;58.43;99893.13;1787526;80;20973;-41
2022/07/17 08:22:36;;;;;;;2.05;0.90;;;;;;;17.75;56.42;99900.02;1787215;80;20998;-44
2022/07/17 08:25:03;;;;;;;2.10;0.90;;;;;;;17.82;56.35;99887.95;1787088;80;20987;-47
2022/07/17 08:27:39;;;;;;;2.52;0.82;;;;;;;17.97;57.13;99884.16;1787163;80;21483;-42
2022/07/17 08:30:07;;;;;;;1.15;0.70;;;;;;;18.20;56.27;99886.84;1786283;80;20983;-42
2022/07/17 08:32:34;;;;;;;3.17;1.22;;;;;;;18.38;54.21;99890.73;1787096;80;21020;-39
2022/07/17 08:35:00;;;;;;;1.45;0.75;;;;;;;18.56;54.10;99892.93;1787406;80;21034;-41
2022/07/17 08:37:27;;;;;;;2.90;0.80;;;;;;;18.56;54.03;99895.59;1787234;80;20991;-44
2022/07/17 08:39:53;;;;;;;2.52;0.88;;;;;;;18.60;53.19;99889.89;1787114;80;21475;-41
2022/07/17 08:42:19;;;;;;;7.95;1.00;;;;;;;18.75;51.80;99897.62;1787133;80;20990;-40
2022/07/17 08:44:46;;;;;;;1.47;0.60;;;;;;;19.03;50.97;99896.31;1779806;80;21039;-39
2022/07/17 08:47:14;;;;;;;3.58;0.90;;;;;;;19.24;52.85;99895.52;1779018;80;20995;-43
2022/07/17 08:49:45;;;;;;;;;;;;;;;19.22;52.06;99891.64;1781588;80;21452;-42
2022/07/17 08:52:13;;;;;;;2.25;0.98;;;;;;;19.06;50.46;99895.20;1778135;80;20179;-43
2022/07/17 08:54:39;;;;;;;0.90;0.62;;;;;;;19.27;51.03;99893.95;1778784;81;20991;-44
2022/07/17 08:57:05;;;;;;;2.05;0.70;;;;;;;19.50;52.05;99896.89;1778971;81;21003;-43
2022/07/17 08:59:33;;;;;;;1.32;0.80;;;;;;;19.86;51.95;99897.47;1778814;81;20964;-44
2022/07/17 09:02:00;;;;;;;1.67;0.70;;;;;;;19.96;51.10;99900.22;1778835;80;20998;-43
2022/07/17 09:04:27;;;;;;;2.77;0.93;;;;;;;19.79;50.64;99900.29;1778806;81;20990;-42
2022/07/17 09:07:02;;;;;;;7.58;0.78;;;;;;;19.50;50.87;99901.36;1778812;81;21546;-43
2022/07/17 09:09:29;;;;;;;2.55;0.90;;;;;;;19.31;50.95;99909.55;1778827;81;21026;-42
2022/07/17 09:12:02;;;;;;;3.95;0.93;;;;;;;19.28;51.53;99896.95;1778926;80;20960;-43
2022/07/17 09:14:40;;;;;;;1.02;0.70;;;;;;;19.59;50.96;99895.75;1778825;80;21015;-44
2022/07/17 09:17:08;;;;;;;4.80;0.80;;;;;;;19.91;48.88;99907.27;1778905;80;21031;-42
2022/07/17 09:19:39;;;;;;;1.98;0.98;;;;;;;19.73;48.73;99910.16;1778743;81;20999;-44
2022/07/17 09:22:18;;;;;;;1.65;0.80;;;;;;;19.89;47.83;99905.22;1778384;80;20988;-39
2022/07/17 09:24:58;;;;;;;2.65;0.80;;;;;;;20.32;48.73;99902.89;1778903;80;20999;-43
2022/07/17 09:27:32;;;;;;;2.75;0.88;;;;;;;20.77;47.50;99906.20;1778342;81;21042;-45
2022/07/17 09:30:06;;;;;;;2.65;0.90;;;;;;;21.08;46.97;99905.19;1778634;80;20976;-43
2022/07/17 09:32:35;;;;;;;2.05;0.80;;;;;;;21.19;45.54;99916.26;1778570;81;20996;-42
2022/07/17 09:35:03;;;;;;;1.50;0.72;;;;;;;21.05;45.91;99917.48;1778805;80;20998;-45
2022/07/17 09:37:31;;;;;;;3.72;0.80;;;;;;;20.91;45.23;99915.19;1778767;81;21022;-45
2022/07/17 09:39:58;;;;;;;1.40;0.78;;;;;;;21.32;45.05;99914.66;1778682;80;21003;-40
2022/07/17 09:42:29;;;;;;;3.40;0.80;;;;;;;21.25;44.81;99918.88;1778957;80;20978;-44
2022/07/17 09:45:06;;;;;;;5.25;0.90;;;;;;;21.12;45.20;99921.80;1772835;80;21031;-45
2022/07/17 09:47:35;;;;;;;4.05;0.70;;;;;;;20.90;45.15;99925.05;1771720;81;21004;-45
2022/07/17 09:50:05;;;;;;;3.00;0.70;;;;;;;21.57;45.07;99920.47;1771595;80;21046;-38
2022/07/17 09:52:34;;;;;;;3.50;0.90;;;;;;;22.38;44.97;99922.31;1771558;81;21012;-44
2022/07/17 09:55:01;;;;;;;3.00;0.85;;;;;;;22.35;43.16;99909.69;1771552;80;20998;-40
2022/07/17 09:57:33;;;;;;;7.62;1.12;;;;;;;22.20;42.20;99921.34;1771707;81;20994;-41
2022/07/17 10:00:12;;;;;;;2.35;0.70;;;;;;;22.10;43.40;99913.30;1771616;81;21547;-40
2022/07/17 10:02:36;;;;;;;2.98;0.90;;;;;;;21.69;42.38;99918.02;1771278;81;21516;-45
2022/07/17 10:05:02;;;;;;;0.90;0.70;;;;;;;22.38;42.80;99918.80;1771539;81;20996;-45
2022/07/17 10:07:28;;;;;;;3.45;0.85;;;;;;;23.25;40.83;99924.75;1771555;81;21484;-39
2022/07/17 10:09:54;;;;;;;4.90;0.62;;;;;;;23.98;40.11;99923.30;1772089;81;21035;-44
2022/07/17 10:12:21;;;;;;;1.95;0.80;;;;;;;24.50;39.08;99908.52;1771775;80;21472;-42
2022/07/17 10:14:48;;;;;;;4.62;0.80;;;;;;;25.07;38.28;99909.28;1771804;81;20983;-46
2022/07/17 10:17:18;;;;;;;1.45;0.70;;;;;;;25.29;35.37;99930.73;1771654;80;21022;-40
2022/07/17 10:19:53;;;;;;;1.75;0.85;;;;;;;25.34;35.41;99930.73;1771187;81;21473;-42
2022/07/17 10:22:20;;;;;;;2.55;0.98;;;;;;;25.30;36.13;99923.50;1771520;81;20992;-43
2022/07/17 10:24:53;;;;;;;1.22;0.65;;;;;;;25.72;35.54;99921.70;1771713;81;21606;-43
2022/07/17 10:27:23;;;;;;;1.22;0.65;;;;;;;25.58;33.93;99928.62;1771608;81;21504;-39
2022/07/17 10:30:13;;;;;;;1.92;0.70;;;;;;;24.91;34.52;99924.86;1771559;81;21023;-45
2022/07/17 10:32:39;;;;;;;1.72;0.60;;;;;;;24.36;34.09;99924.37;1771544;81;21015;-41
2022/07/17 10:35:10;;;;;;;1.07;0.70;;;;;;;23.75;35.68;99927.76;1743627;81;21026;-42
2022/07/17 10:37:40;;;;;;;1.67;0.88;;;;;;;24.02;35.50;99934.06;1771631;81;20999;-43
2022/07/17 10:40:22;;;;;;;3.40;0.70;;;;;;;24.49;35.23;99928.34;1771491;80;21418;-43
2022/07/17 10:43:02;;;;;;;2.65;0.90;;;;;;;25.23;35.45;99925.13;1771497;81;20976;-45
2022/07/17 10:45:44;;;;;;;4.03;1.20;;;;;;;26.11;34.38;99917.03;1778067;80;21050;-40
2022/07/17 10:48:16;;;;;;;1.80;0.68;;;;;;;26.74;31.66;99917.58;1778698;81;21484;-40
2022/07/17 10:50:52;;;;;;;2.45;0.72;;;;;;;26.95;29.84;99909.38;1778862;80;21038;-42
2022/07/17 10:53:24;;;;;;;1.50;0.70;;;;;;;26.88;31.59;99916.50;1778758;81;21452;-40
2022/07/17 10:55:54;;;;;;;2.70;0.95;;;;;;;26.36;31.25;99908.36;1778401;80;21500;-37
2022/07/17 10:58:32;;;;;;;1.70;0.72;;;;;;;25.70;31.51;99923.73;1778539;80;20995;-39
2022/07/17 11:01:14;;;;;;;1.10;0.75;;;;;;;25.12;32.40;99926.27;1778155;80;21113;-39
2022/07/17 11:03:49;;;;;;;1.10;0.60;;;;;;;25.67;32.94;99933.83;1778717;80;20971;-43
2022/07/17 11:06:22;;;;;;;3.42;0.98;;;;;;;26.30;32.64;99923.89;1778901;81;20967;-41
2022/07/17 11:08:54;;;;;;;2.40;0.80;;;;;;;26.97;31.22;99922.19;1778942;81;21011;-40
2022/07/17 11:11:23;;;;;;;2.98;1.00;;;;;;;27.36;31.15;99918.62;1778518;81;20983;-38
2022/07/17 11:13:49;;;;;;;2.12;1.12;;;;;;;27.19;30.19;99924.60;1778787;80;20996;-40
2022/07/17 11:16:27;;;;;;;3.02;1.67;;;;;;;26.73;30.30;99913.18;1778925;80;21120;-40
2022/07/17 11:18:55;;;;;;;2.77;0.93;;;;;;;26.60;30.41;99923.17;1778791;81;21151;-46
2022/07/17 11:21:21;;;;;;;1.85;0.65;;;;;;;26.62;30.46;99918.96;1778781;81;20980;-39
2022/07/17 11:23:56;;;;;;;3.93;1.37;;;;;;;26.95;29.90;99920.18;1779072;81;20988;-45
2022/07/17 11:26:22;;;;;;;1.95;0.82;;;;;;;26.89;28.65;99910.93;1778792;80;20994;-42
2022/07/17 11:28:51;;;;;;;2.77;1.10;;;;;;;25.78;28.21;99913.80;1779052;80;20983;-42
2022/07/17 11:31:27;;;;;;;1.90;0.80;;;;;;;25.83;29.74;99917.33;1779021;80;20998;-43
2022/07/17 11:34:05;;;;;;;1.87;0.82;;;;;;;25.58;29.94;99913.29;1778971;81;20959;-43
2022/07/17 11:36:35;;;;;;;1.37;0.95;;;;;;;25.14;30.43;99914.87;1778862;81;21050;-43
2022/07/17 11:39:10;;;;;;;2.75;0.88;;;;;;;24.67;30.89;99922.09;1777699;80;20995;-42
2022/07/17 11:41:43;;;;;;;0.65;0.57;;;;;;;25.06;31.12;99918.86;1778804;80;20988;-44
2022/07/17 11:44:15;;;;;;;2.33;1.15;;;;;;;24.73;30.78;99918.73;1777236;80;21075;-41
2022/07/17 11:46:45;;;;;;;2.17;1.05;;;;;;;25.33;31.10;99914.27;1778819;81;21046;-41
2022/07/17 11:49:11;;;;;;;2.98;0.80;;;;;;;25.57;30.76;99916.98;1778890;81;21039;-41
2022/07/17 11:51:47;;;;;;;;;;;;;;;26.32;30.64;99930.78;1759648;81;21441;-42
2022/07/17 11:54:15;;;;;;;3.50;0.90;;;;;;;26.61;28.49;99932.10;1777065;80;20128;-37
2022/07/17 11:56:47;;;;;;;1.98;0.80;;;;;;;27.23;29.14;99926.44;1778850;81;21484;-42
2022/07/17 11:59:13;;;;;;;2.92;0.80;;;;;;;27.67;29.50;99919.08;1777650;80;21050;-38
2022/07/17 12:01:45;;;;;;;1.63;0.83;;;;;;;27.67;28.63;99925.84;1779108;81;21464;-45
2022/07/17 12:04:14;;;;;;;2.27;1.00;;;;;;;27.03;28.80;99917.94;1778773;80;20999;-41
2022/07/17 12:06:40;;;;;;;3.33;1.02;;;;;;;26.37;28.71;99924.89;1778743;81;20968;-40
2022/07/17 12:09:07;;;;;;;3.60;1.20;;;;;;;25.63;29.82;99931.14;1778930;81;20999;-45
2022/07/17 12:11:45;;;;;;;;;;;;;;;25.23;30.40;99928.69;1781462;81;20999;-40
2022/07/17 12:14:11;;;;;;;2.27;0.70;;;;;;;25.28;30.14;99930.38;1778775;81;20413;-44
2022/07/17 12:16:38;;;;;;;1.50;0.85;;;;;;;25.87;30.19;99920.05;1779094;80;20972;-44
2022/07/17 12:19:18;;;;;;;4.83;0.95;;;;;;;25.59;30.60;99918.16;1779173;80;21457;-39
2022/07/17 12:22:03;;;;;;;2.58;0.95;;;;;;;25.15;30.48;99923.77;1778714;81;21039;-46
2022/07/17 12:24:33;;;;;;;4.55;0.95;;;;;;;24.57;30.91;99930.25;1778799;80;21499;-39
2022/07/17 12:27:02;;;;;;;1.30;0.70;;;;;;;24.37;31.31;99928.77;1778761;81;20987;-43
2022/07/17 12:29:28;;;;;;;3.72;1.10;;;;;;;24.31;31.26;99920.33;1778746;80;21085;-38
2022/07/17 12:32:07;;;;;;;6.42;1.17;;;;;;;24.36;31.33;99925.24;1778917;81;20987;-40
2022/07/17 12:34:36;;;;;;;1.12;0.90;;;;;;;24.10;30.86;99924.73;1778792;81;20972;-44
2022/07/17 12:37:02;;;;;;;2.87;0.88;;;;;;;23.96;30.44;99929.33;1778980;81;21116;-46
2022/07/17 12:39:28;;;;;;;2.93;1.03;;;;;;;23.77;31.44;99924.41;1778984;80;20984;-45
2022/07/17 12:41:54;;;;;;;1.87;0.98;;;;;;;23.53;31.94;99930.92;1778792;81;21712;-44
2022/07/17 12:44:20;;;;;;;2.75;0.70;;;;;;;23.52;32.61;99927.88;1778675;80;21513;-45
2022/07/17 12:46:46;;;;;;;7.22;1.37;;;;;;;23.66;32.47;99930.03;1778884;80;21477;-43
2022/07/17 12:49:11;;;;;;;2.92;0.88;;;;;;;23.82;32.35;99929.88;1778758;80;21480;-46
2022/07/17 12:51:37;;;;;;;3.95;0.88;;;;;;;23.98;32.09;99915.23;1778820;80;20988;-45
2022/07/17 12:54:03;;;;;;;2.37;0.80;;;;;;;24.06;32.11;99914.45;1778741;81;21019;-44
2022/07/17 12:56:29;;;;;;;4.47;1.00;;;;;;;24.11;31.20;99918.85;1778726;81;21068;-39
2022/07/17 12:58:55;;;;;;;8.50;1.20;;;;;;;23.80;30.98;99921.97;1778741;80;20995;-45
2022/07/17 13:01:20;;;;;;;2.17;0.75;;;;;;;23.65;31.83;99910.91;1778705;81;20972;-44
2022/07/17 13:03:47;;;;;;;3.45;1.00;;;;;;;24.02;31.87;99929.20;1778754;80;20975;-42
2022/07/17 13:06:13;;;;;;;3.00;1.05;;;;;;;24.00;31.06;99915.92;1778890;81;21030;-44
2022/07/17 13:08:39;;;;;;;1.90;0.80;;;;;;;24.27;31.23;99913.59;1778697;81;21003;-42
2022/07/17 13:11:05;;;;;;;4.00;0.90;;;;;;;24.18;30.68;99909.67;1778746;80;20987;-40
2022/07/17 13:13:31;;;;;;;2.83;0.80;;;;;;;23.89;31.14;99909.45;1778720;80;21034;-44
2022/07/17 13:15:57;;;;;;;3.27;0.68;;;;;;;23.85;31.11;99912.95;1778952;81;20995;-42
2022/07/17 13:18:23;;;;;;;3.85;0.90;;;;;;;23.78;29.89;99913.20;1778900;81;21004;-43
2022/07/17 13:20:49;;;;;;;3.35;1.07;;;;;;;23.71;30.40;99897.36;1778847;80;20999;-46
2022/07/17 13:23:16;;;;;;;3.27;1.10;;;;;;;23.58;30.99;99910.67;1778684;81;21531;-41
2022/07/17 13:25:45;;;;;;;5.92;1.42;;;;;;;23.39;31.66;99904.09;1778832;80;21634;-42
2022/07/17 13:28:11;;;;;;;5.20;1.10;;;;;;;23.55;31.96;99904.77;1778913;80;20999;-40
2022/07/17 13:30:37;;;;;;;2.27;0.80;;;;;;;23.52;31.90;99908.61;1778727;81;21003;-39
2022/07/17 13:33:03;;;;;;;2.52;1.00;;;;;;;23.56;32.00;99899.75;1778748;81;21007;-42
2022/07/17 13:35:29;;;;;;;1.98;0.90;;;;;;;23.68;31.99;99908.40;1778721;81;21043;-41
2022/07/17 13:37:56;;;;;;;6.78;1.25;;;;;;;23.89;31.71;99918.34;1778648;80;20967;-43
2022/07/17 13:40:24;;;;;;;;;;;;;;;23.85;31.43;99919.67;1781377;81;21026;-41
2022/07/17 13:42:51;;;;;;;6.97;1.30;;;;;;;23.73;31.64;99924.39;1778663;80;20108;-38
2022/07/17 13:45:18;;;;;;;1.12;0.65;;;;;;;23.62;31.04;99919.26;1775119;80;21016;-42
2022/07/17 13:47:44;;;;;;;4.05;1.32;;;;;;;23.70;31.21;99916.66;1771733;81;21476;-45
2022/07/17 13:50:10;;;;;;;1.65;0.60;;;;;;;23.71;31.71;99919.67;1771607;80;20995;-40
2022/07/17 13:52:37;;;;;;;5.53;1.12;;;;;;;23.73;31.67;99910.13;1771527;80;20979;-44
2022/07/17 13:55:07;;;;;;;3.52;1.17;;;;;;;23.86;31.39;99921.34;1771705;81;21480;-40
2022/07/17 13:57:33;;;;;;;2.65;0.95;;;;;;;23.94;31.64;99925.95;1771613;81;21058;-40
2022/07/17 14:00:00;;;;;;;2.80;0.90;;;;;;;23.87;31.71;99919.01;1771638;81;21510;-44
2022/07/17 14:02:28;;;;;;;2.60;0.80;;;;;;;23.75;31.88;99918.36;1771762;81;21031;-42
2022/07/17 14:04:54;;;;;;;6.47;1.32;;;;;;;23.79;31.78;99935.52;1771564;81;21494;-43